Time;durP1;ratioP1;P1;durP2;ratioP2;P2;SDS_P1;SDS_P2;PMS_P1;PMS_P2;Temp;Humidity;BMP_temperature;BMP_pressure;BME280_temperature;BME280_humidity;BME280_pressure;Samples;Min_cycle;Max_cycle;Signal;HPM_P1;HPM_P2
2023/09/23 00:00:03;;;;;;;2.10;1.23;;;;;;;15.86;61.86;96694.44;4970240;28;20026;-86
2023/09/23 00:02:28;;;;;;;1.67;1.13;;;;;;;15.95;61.58;96695.31;4940095;28;20120;-85
2023/09/23 00:04:54;;;;;;;2.13;1.30;;;;;;;15.94;62.04;96699.03;4984988;28;20386;-85
2023/09/23 00:07:19;;;;;;;2.13;0.85;;;;;;;15.96;62.43;96701.38;5006415;28;20034;-85
2023/09/23 00:09:44;;;;;;;0.70;0.70;;;;;;;15.95;61.98;96710.31;5004985;28;20032;-85
2023/09/23 00:12:11;;;;;;;0.80;0.80;;;;;;;15.81;62.79;96684.81;4999904;28;20029;-85
2023/09/23 00:14:36;;;;;;;1.45;0.88;;;;;;;15.91;62.55;96713.50;4990365;28;20114;-84
2023/09/23 00:17:03;;;;;;;1.92;0.90;;;;;;;16.06;62.62;96715.09;4980466;28;20192;-84
2023/09/23 00:19:34;;;;;;;0.90;0.85;;;;;;;15.89;62.14;96694.63;4985564;28;20041;-84
2023/09/23 00:22:00;;;;;;;1.08;0.95;;;;;;;16.04;61.99;96721.69;4973410;28;20261;-83
2023/09/23 00:24:25;;;;;;;0.90;0.90;;;;;;;15.98;61.43;96714.97;5003022;28;20037;-83
2023/09/23 00:26:51;;;;;;;1.33;0.85;;;;;;;15.95;61.77;96710.31;4999290;28;20172;-84
2023/09/23 00:29:17;;;;;;;0.82;0.82;;;;;;;15.93;61.65;96720.31;5003212;28;20220;-85
2023/09/23 00:31:43;;;;;;;1.20;0.98;;;;;;;15.79;62.24;96709.81;4985589;28;20060;-84
2023/09/23 00:34:09;;;;;;;2.05;0.82;;;;;;;15.89;61.80;96707.00;4987407;28;20051;-85
2023/09/23 00:36:35;;;;;;;0.80;0.80;;;;;;;15.85;62.00;96711.25;4990790;28;20037;-84
2023/09/23 00:39:03;;;;;;;1.27;1.00;;;;;;;15.82;62.39;96728.38;5019717;28;20040;-85
2023/09/23 00:41:29;;;;;;;1.88;1.17;;;;;;;15.74;62.29;96726.38;4977938;28;20034;-84
2023/09/23 00:43:55;;;;;;;0.90;0.80;;;;;;;15.66;62.16;96719.16;5002097;28;20370;-84
2023/09/23 00:46:21;;;;;;;0.95;0.80;;;;;;;15.61;62.30;96724.50;4972720;28;20030;-85
2023/09/23 00:48:48;;;;;;;1.10;1.00;;;;;;;15.74;61.27;96727.16;5004420;28;20036;-83
2023/09/23 00:51:13;;;;;;;0.70;0.70;;;;;;;15.89;61.88;96749.78;4981138;28;20099;-85
2023/09/23 00:53:39;;;;;;;1.33;0.73;;;;;;;15.81;61.94;96747.81;5025186;28;20029;-85
2023/09/23 00:56:05;;;;;;;2.08;0.75;;;;;;;15.72;61.27;96736.38;5005353;28;20037;-83
2023/09/23 00:58:31;;;;;;;1.83;0.98;;;;;;;15.80;61.14;96745.47;5001716;28;20061;-85
2023/09/23 01:00:58;;;;;;;0.90;0.60;;;;;;;15.82;61.58;96744.13;4996748;28;20049;-86
2023/09/23 01:03:24;;;;;;;1.00;0.90;;;;;;;15.59;62.02;96716.13;4985348;28;20569;-83
2023/09/23 01:06:08;;;;;;;0.98;0.85;;;;;;;15.72;61.29;96733.75;4989789;28;20029;-85
2023/09/23 01:08:35;;;;;;;1.73;0.80;;;;;;;15.55;61.59;96727.19;4976741;28;20561;-85
2023/09/23 01:11:00;;;;;;;1.85;0.82;;;;;;;15.57;60.75;96752.38;5025085;28;20037;-85
2023/09/23 01:13:29;;;;;;;1.48;0.70;;;;;;;15.42;61.40;96746.31;5003660;28;20036;-84
2023/09/23 01:15:55;;;;;;;1.67;0.80;;;;;;;15.41;61.76;96738.72;5016137;28;20098;-84
2023/09/23 01:18:23;;;;;;;0.45;0.38;;;;;;;15.43;61.37;96742.63;5005771;28;20036;-85
2023/09/23 01:20:50;;;;;;;0.90;0.90;;;;;;;15.27;61.72;96720.31;4995035;28;20029;-85
2023/09/23 01:23:16;;;;;;;1.70;0.80;;;;;;;15.13;61.61;96736.75;4996185;28;20048;-85
2023/09/23 01:25:41;;;;;;;1.80;1.00;;;;;;;14.97;62.37;96735.41;5007439;28;20041;-85
2023/09/23 01:28:13;;;;;;;1.40;0.70;;;;;;;14.90;62.51;96753.34;5001644;28;20123;-84
2023/09/23 01:30:45;;;;;;;1.65;0.70;;;;;;;14.97;62.99;96745.91;4976678;28;20479;-84
2023/09/23 01:33:13;;;;;;;0.90;0.80;;;;;;;14.98;62.70;96768.44;4981200;28;20037;-85
2023/09/23 01:35:40;;;;;;;1.00;0.75;;;;;;;14.99;63.45;96764.75;4983175;28;20180;-84
2023/09/23 01:38:05;;;;;;;2.05;0.82;;;;;;;14.92;62.81;96764.31;5003137;28;20404;-85
2023/09/23 01:40:36;;;;;;;1.05;0.95;;;;;;;14.95;62.28;96748.78;4967173;28;20129;-86
2023/09/23 01:43:02;;;;;;;1.95;0.80;;;;;;;14.92;62.43;96756.44;4969873;28;20494;-85
2023/09/23 01:45:28;;;;;;;1.10;0.88;;;;;;;14.66;63.29;96738.41;4971295;28;20466;-84
2023/09/23 01:47:56;;;;;;;1.35;0.70;;;;;;;14.79;63.15;96760.56;4974235;28;20114;-84
2023/09/23 01:50:26;;;;;;;0.93;0.80;;;;;;;14.64;62.21;96758.88;4909102;28;20233;-84
2023/09/23 01:52:51;;;;;;;0.80;0.60;;;;;;;14.62;63.38;96761.00;4979374;28;20080;-85
2023/09/23 01:55:17;;;;;;;1.17;0.75;;;;;;;14.53;63.39;96746.94;4991256;28;20087;-85
2023/09/23 01:57:43;;;;;;;1.75;1.00;;;;;;;14.60;62.79;96765.75;4991785;28;20044;-84
2023/09/23 02:00:17;;;;;;;1.13;0.80;;;;;;;14.60;62.74;96769.16;5009089;28;20437;-85
2023/09/23 02:02:48;;;;;;;0.73;0.73;;;;;;;14.56;62.21;96772.56;4990782;28;20162;-84
2023/09/23 02:05:14;;;;;;;1.83;0.80;;;;;;;14.45;63.06;96766.69;4987074;28;20045;-84
2023/09/23 02:07:39;;;;;;;1.00;0.60;;;;;;;14.34;62.54;96765.22;4984910;28;20037;-83
2023/09/23 02:10:08;;;;;;;1.25;0.80;;;;;;;14.21;63.30;96743.09;4984405;28;20042;-84
2023/09/23 02:12:34;;;;;;;2.15;0.80;;;;;;;14.38;63.92;96784.56;4995763;28;20477;-84
2023/09/23 02:14:59;;;;;;;2.22;1.00;;;;;;;14.39;63.46;96783.50;5018578;28;20094;-84
2023/09/23 02:17:25;;;;;;;0.93;0.70;;;;;;;14.34;63.80;96780.94;5001047;28;20176;-83
2023/09/23 02:19:53;;;;;;;1.88;0.85;;;;;;;14.37;63.12;96769.91;4981201;28;20040;-84
2023/09/23 02:22:19;;;;;;;0.88;0.60;;;;;;;14.30;62.26;96769.47;4970001;28;20724;-83
2023/09/23 02:24:46;;;;;;;1.83;0.70;;;;;;;14.36;62.96;96784.03;4907125;28;20277;-83
2023/09/23 02:27:11;;;;;;;1.40;0.90;;;;;;;14.34;62.97;96786.97;4913155;28;20232;-83
2023/09/23 02:29:38;;;;;;;1.13;0.70;;;;;;;14.29;63.75;96792.25;4917903;28;20216;-84
2023/09/23 02:32:06;;;;;;;1.30;1.10;;;;;;;14.30;62.76;96793.81;4942820;28;20118;-82
2023/09/23 02:34:32;;;;;;;1.10;0.90;;;;;;;14.28;63.38;96792.53;4910030;28;20633;-82
2023/09/23 02:36:57;;;;;;;1.58;1.00;;;;;;;14.27;62.83;96781.25;4934497;28;20490;-82
2023/09/23 02:39:23;;;;;;;1.52;0.80;;;;;;;14.37;63.08;96804.72;4935845;28;20240;-82
2023/09/23 02:41:50;;;;;;;2.30;1.00;;;;;;;14.44;63.50;96796.53;4936632;28;20156;-82
2023/09/23 02:44:20;;;;;;;1.60;1.10;;;;;;;14.44;62.81;96796.53;4918216;28;20098;-83
2023/09/23 02:46:49;;;;;;;0.80;0.80;;;;;;;14.35;62.79;96799.00;4913904;28;20340;-83
2023/09/23 02:49:15;;;;;;;1.25;0.80;;;;;;;14.32;63.10;96804.78;4926689;28;20634;-84
2023/09/23 02:51:44;;;;;;;1.67;1.30;;;;;;;14.41;63.56;96808.38;4935595;28;20316;-83
2023/09/23 02:54:11;;;;;;;2.03;1.00;;;;;;;14.34;62.96;96802.69;4916260;28;20169;-83
2023/09/23 02:56:40;;;;;;;1.60;1.00;;;;;;;14.38;62.65;96811.53;4935360;28;20208;-83
2023/09/23 02:59:13;;;;;;;1.75;0.90;;;;;;;14.29;62.54;96815.81;4944913;28;20593;-83
2023/09/23 03:01:48;;;;;;;1.35;1.00;;;;;;;14.28;63.32;96809.00;4918134;28;20756;-84
2023/09/23 03:04:16;;;;;;;1.13;0.90;;;;;;;14.15;62.91;96792.09;4925024;28;20201;-83
2023/09/23 03:06:50;;;;;;;0.90;0.90;;;;;;;14.22;62.99;96804.88;4933134;28;20740;-84
2023/09/23 03:09:19;;;;;;;1.50;0.88;;;;;;;14.25;62.68;96804.31;4899866;28;20296;-84
2023/09/23 03:11:53;;;;;;;1.77;1.00;;;;;;;14.08;63.30;96799.50;4905431;28;20196;-84
2023/09/23 03:14:35;;;;;;;0.80;0.70;;;;;;;14.08;63.82;96814.44;4940764;28;20616;-84
2023/09/23 03:17:01;;;;;;;0.88;0.73;;;;;;;14.01;62.91;96806.91;4930118;28;20700;-84
2023/09/23 03:19:26;;;;;;;2.25;1.23;;;;;;;13.94;63.76;96804.59;4929881;28;20279;-84
2023/09/23 03:21:56;;;;;;;1.60;1.00;;;;;;;13.85;63.81;96819.34;4932399;28;20304;-84
2023/09/23 03:24:26;;;;;;;1.20;1.10;;;;;;;13.90;63.19;96824.53;4933161;28;20673;-84
2023/09/23 03:26:58;;;;;;;1.00;0.90;;;;;;;13.94;63.14;96828.16;4911383;28;20275;-83
2023/09/23 03:29:28;;;;;;;1.13;1.02;;;;;;;13.82;63.94;96825.13;4945111;28;20537;-83
2023/09/23 03:31:55;;;;;;;1.50;0.68;;;;;;;13.84;64.36;96817.75;4912453;28;20111;-83
2023/09/23 03:34:21;;;;;;;1.30;1.00;;;;;;;13.88;64.38;96826.66;4974790;28;20045;-84
2023/09/23 03:36:47;;;;;;;1.05;0.90;;;;;;;13.92;64.46;96834.72;4985420;28;20130;-83
2023/09/23 03:39:12;;;;;;;1.92;1.08;;;;;;;13.73;62.98;96811.06;4984683;28;20204;-84
2023/09/23 03:41:38;;;;;;;1.08;0.70;;;;;;;13.78;64.05;96814.41;4996222;28;20041;-84
2023/09/23 03:44:04;;;;;;;1.27;1.15;;;;;;;13.81;63.63;96824.34;4980802;28;20030;-83
2023/09/23 03:46:30;;;;;;;1.98;1.10;;;;;;;13.75;64.08;96837.72;4991195;28;20116;-83
2023/09/23 03:48:55;;;;;;;1.27;1.00;;;;;;;13.74;63.60;96817.84;4979971;28;20045;-85
2023/09/23 03:51:21;;;;;;;2.25;1.10;;;;;;;13.78;63.72;96840.59;4986235;28;20575;-84
2023/09/23 03:53:48;;;;;;;1.83;0.90;;;;;;;13.70;63.21;96840.38;4994461;28;20037;-84
2023/09/23 03:56:14;;;;;;;2.20;0.80;;;;;;;13.75;64.00;96840.34;4987379;28;20043;-84
2023/09/23 03:58:39;;;;;;;1.48;0.88;;;;;;;13.68;64.14;96845.88;4954003;28;20378;-83
2023/09/23 04:01:13;;;;;;;2.10;0.98;;;;;;;13.72;63.96;96848.75;4936178;28;20189;-83
2023/09/23 04:03:41;;;;;;;2.03;0.98;;;;;;;13.75;63.40;96850.81;4944677;28;20250;-83
2023/09/23 04:06:06;;;;;;;2.10;0.68;;;;;;;13.73;63.99;96858.16;4935553;28;20374;-83
2023/09/23 04:08:32;;;;;;;1.40;0.95;;;;;;;13.70;63.62;96845.63;4913906;28;20183;-83
2023/09/23 04:11:03;;;;;;;1.73;0.90;;;;;;;13.82;63.05;96848.66;4914239;28;20188;-83
2023/09/23 04:13:30;;;;;;;1.58;1.00;;;;;;;13.75;62.72;96862.06;4922286;28;20278;-83
2023/09/23 04:16:00;;;;;;;1.33;0.93;;;;;;;13.77;63.08;96861.78;4908884;28;20708;-82
2023/09/23 04:18:29;;;;;;;3.10;1.20;;;;;;;13.71;62.85;96861.03;4917031;28;20257;-82
2023/09/23 04:20:54;;;;;;;1.13;1.00;;;;;;;13.56;63.68;96856.69;4914122;28;20079;-83
2023/09/23 04:23:20;;;;;;;1.92;1.30;;;;;;;13.66;63.72;96869.69;4921008;28;20201;-83
2023/09/23 04:25:48;;;;;;;1.20;0.93;;;;;;;13.70;63.01;96877.00;4909758;28;20264;-83
2023/09/23 04:28:13;;;;;;;1.38;0.80;;;;;;;13.64;63.51;96869.19;4909777;28;20283;-83
2023/09/23 04:30:39;;;;;;;2.42;1.08;;;;;;;13.55;62.78;96872.66;4915147;28;20199;-84
2023/09/23 04:33:04;;;;;;;1.20;1.00;;;;;;;13.58;63.41;96870.25;4917270;28;20768;-83
2023/09/23 04:35:30;;;;;;;2.47;1.17;;;;;;;13.51;63.33;96856.72;4931195;28;20026;-83
2023/09/23 04:37:55;;;;;;;2.17;1.20;;;;;;;13.73;63.19;96872.00;4932094;28;20216;-82
2023/09/23 04:40:21;;;;;;;1.38;1.02;;;;;;;13.74;63.25;96878.03;4925962;28;20331;-83
2023/09/23 04:42:48;;;;;;;1.33;1.00;;;;;;;13.65;63.50;96880.44;4939357;28;20363;-85
2023/09/23 04:45:14;;;;;;;2.42;1.13;;;;;;;13.50;63.68;96878.69;4996670;28;20190;-83
2023/09/23 04:47:45;;;;;;;2.05;1.02;;;;;;;13.47;63.29;96863.56;4962658;28;20036;-85
2023/09/23 04:50:12;;;;;;;2.22;1.17;;;;;;;13.36;63.21;96867.25;4957255;28;20048;-82
2023/09/23 04:52:37;;;;;;;1.10;1.00;;;;;;;13.60;63.74;96899.53;4985613;28;20661;-83
2023/09/23 04:55:03;;;;;;;1.30;0.90;;;;;;;13.49;63.27;96887.59;4968716;28;20180;-84
2023/09/23 04:57:28;;;;;;;1.60;1.40;;;;;;;13.62;62.58;96907.13;4997563;28;20537;-85
2023/09/23 04:59:54;;;;;;;0.95;0.95;;;;;;;13.53;63.15;96914.00;4975753;28;20059;-85
2023/09/23 05:02:20;;;;;;;1.25;0.90;;;;;;;13.33;63.28;96886.09;4977275;28;20537;-84
2023/09/23 05:04:46;;;;;;;1.15;0.98;;;;;;;13.37;63.35;96893.13;4994379;28;20040;-85
2023/09/23 05:07:12;;;;;;;1.75;0.93;;;;;;;13.37;63.36;96916.69;5008746;28;20131;-84
2023/09/23 05:09:39;;;;;;;2.35;1.17;;;;;;;13.21;63.06;96899.44;4994106;28;20722;-83
2023/09/23 05:12:05;;;;;;;2.00;0.80;;;;;;;13.33;64.12;96927.94;4975257;28;20026;-86
2023/09/23 05:14:30;;;;;;;2.15;1.00;;;;;;;13.02;64.50;96914.94;4982970;28;20418;-84
2023/09/23 05:16:58;;;;;;;2.90;1.00;;;;;;;13.24;63.34;96941.53;4980941;28;20405;-85
2023/09/23 05:19:23;;;;;;;1.60;0.70;;;;;;;13.21;63.48;96943.88;4990834;28;20037;-83
2023/09/23 05:21:50;;;;;;;2.38;1.20;;;;;;;13.18;63.63;96939.19;4992532;28;20481;-85
2023/09/23 05:24:15;;;;;;;1.90;0.90;;;;;;;13.00;64.23;96915.19;4990324;28;20217;-85
2023/09/23 05:26:42;;;;;;;1.10;1.00;;;;;;;13.04;63.37;96934.53;4975449;28;20037;-84
2023/09/23 05:29:08;;;;;;;2.10;0.90;;;;;;;13.19;63.72;96956.44;4965755;28;20045;-83
2023/09/23 05:31:34;;;;;;;1.00;0.80;;;;;;;13.17;64.18;96953.31;4980352;28;20034;-85
2023/09/23 05:34:00;;;;;;;1.20;0.80;;;;;;;13.16;64.12;96949.13;4969293;28;20199;-84
2023/09/23 05:36:25;;;;;;;0.90;0.80;;;;;;;13.20;64.28;96961.41;4981046;28;20029;-85
2023/09/23 05:38:51;;;;;;;1.60;1.20;;;;;;;13.13;64.08;96950.47;4983466;28;20168;-84
2023/09/23 05:41:16;;;;;;;1.83;0.88;;;;;;;13.07;63.62;96936.63;5001616;28;20125;-85
2023/09/23 05:43:42;;;;;;;1.98;0.85;;;;;;;13.29;63.66;96970.25;4983509;28;20057;-84
2023/09/23 05:46:11;;;;;;;1.10;0.90;;;;;;;13.25;64.11;96964.00;4974995;28;20129;-84
2023/09/23 05:48:36;;;;;;;1.73;1.15;;;;;;;13.32;63.43;96966.38;4996874;28;20099;-84
2023/09/23 05:51:03;;;;;;;1.20;1.00;;;;;;;13.16;63.57;96951.75;4999294;28;20042;-84
2023/09/23 05:53:29;;;;;;;2.47;0.88;;;;;;;13.11;64.09;96945.50;4993810;28;20625;-85
2023/09/23 05:55:54;;;;;;;2.85;0.88;;;;;;;13.15;63.77;96953.59;4997962;28;20030;-84
2023/09/23 05:58:19;;;;;;;1.77;1.00;;;;;;;13.35;63.64;96988.59;5000880;28;20650;-86
2023/09/23 06:00:46;;;;;;;1.40;0.80;;;;;;;13.49;63.19;96992.22;5011463;28;20278;-86
2023/09/23 06:03:15;;;;;;;1.00;0.75;;;;;;;13.47;63.81;97000.31;5008793;28;20040;-84
2023/09/23 06:05:41;;;;;;;2.10;1.17;;;;;;;13.30;63.63;96966.63;4966766;28;20506;-84
2023/09/23 06:08:06;;;;;;;1.77;0.93;;;;;;;13.43;63.31;96985.44;4980221;28;20173;-84
2023/09/23 06:10:33;;;;;;;2.15;1.05;;;;;;;13.61;63.21;97002.38;4971715;28;20655;-83
2023/09/23 06:12:58;;;;;;;3.38;1.05;;;;;;;13.49;63.18;96998.22;4995151;28;20107;-83
2023/09/23 06:15:24;;;;;;;1.13;0.90;;;;;;;13.63;63.60;97003.66;4962858;28;20030;-83
2023/09/23 06:17:49;;;;;;;1.25;0.90;;;;;;;13.72;63.90;97010.97;4964156;28;20218;-83
2023/09/23 06:20:15;;;;;;;1.88;0.93;;;;;;;13.78;63.17;97018.53;4965631;28;20021;-84
2023/09/23 06:22:40;;;;;;;1.70;1.10;;;;;;;13.89;64.05;97018.47;4976351;28;20325;-83
2023/09/23 06:25:06;;;;;;;2.63;0.90;;;;;;;13.68;62.88;97001.03;4979052;28;20348;-83
2023/09/23 06:27:31;;;;;;;1.10;1.00;;;;;;;13.97;62.99;97029.16;4995365;28;20174;-84
2023/09/23 06:29:57;;;;;;;1.08;0.95;;;;;;;14.12;62.99;97037.97;4975497;28;20099;-84
2023/09/23 06:32:22;;;;;;;1.75;1.05;;;;;;;14.11;62.58;97033.81;5005722;28;20059;-83
2023/09/23 06:34:47;;;;;;;1.83;0.85;;;;;;;14.02;63.37;97010.81;4987019;28;20418;-84
2023/09/23 06:37:13;;;;;;;1.88;1.00;;;;;;;14.23;62.82;97021.16;4958109;28;20184;-83
2023/09/23 06:39:39;;;;;;;2.67;1.02;;;;;;;14.35;62.89;97016.38;4964824;28;20255;-86
2023/09/23 06:42:04;;;;;;;2.60;1.00;;;;;;;14.43;62.47;97021.03;4983754;28;20187;-84
2023/09/23 06:44:30;;;;;;;4.07;1.80;;;;;;;14.64;61.75;97048.97;4976546;28;20202;-84
2023/09/23 06:46:56;;;;;;;2.08;0.90;;;;;;;14.50;62.48;97030.44;5002108;28;20513;-84
2023/09/23 06:49:22;;;;;;;1.85;0.82;;;;;;;14.66;61.47;97045.00;4979933;28;20029;-84
2023/09/23 06:51:47;;;;;;;2.13;0.95;;;;;;;14.66;61.24;97046.84;4980733;28;20081;-84
2023/09/23 06:54:13;;;;;;;1.40;0.75;;;;;;;14.79;61.40;97049.63;4993586;28;20037;-83
2023/09/23 06:56:38;;;;;;;1.67;1.52;;;;;;;14.98;61.27;97077.81;4976052;28;20036;-83
2023/09/23 06:59:04;;;;;;;2.00;0.95;;;;;;;15.01;60.30;97048.41;4966225;28;20026;-84
2023/09/23 07:01:30;;;;;;;1.00;0.88;;;;;;;15.02;60.76;97060.44;4978557;28;20194;-83
2023/09/23 07:03:55;;;;;;;1.73;0.95;;;;;;;15.00;61.24;97062.56;4978594;28;20025;-83
2023/09/23 07:06:23;;;;;;;1.00;0.85;;;;;;;15.07;60.63;97062.25;4978252;28;20096;-84
2023/09/23 07:08:48;;;;;;;1.40;0.90;;;;;;;15.29;60.13;97086.19;4993286;28;20069;-84
2023/09/23 07:11:14;;;;;;;2.45;1.30;;;;;;;15.45;59.04;97080.78;4963466;28;20540;-84
2023/09/23 07:13:39;;;;;;;2.15;1.13;;;;;;;15.48;59.51;97073.13;4985131;28;20071;-83
2023/09/23 07:16:05;;;;;;;2.30;0.98;;;;;;;15.47;58.57;97074.22;4994927;28;20025;-83
2023/09/23 07:18:31;;;;;;;0.90;0.68;;;;;;;15.61;58.36;97065.66;4982986;28;20037;-84
2023/09/23 07:20:57;;;;;;;1.45;0.70;;;;;;;15.75;58.52;97092.84;4983087;28;20477;-84
2023/09/23 07:23:22;;;;;;;2.03;1.13;;;;;;;15.94;58.38;97086.84;4989013;28;20577;-86
2023/09/23 07:25:48;;;;;;;1.80;0.85;;;;;;;15.79;58.06;97080.72;4992621;28;20125;-84
2023/09/23 07:28:13;;;;;;;1.48;0.93;;;;;;;16.19;57.51;97109.38;5005933;28;20623;-86
2023/09/23 07:30:40;;;;;;;2.40;1.00;;;;;;;16.07;57.80;97099.28;4965272;28;20446;-84
2023/09/23 07:33:05;;;;;;;0.98;0.90;;;;;;;16.46;57.60;97114.03;4969226;28;20088;-83
2023/09/23 07:35:32;;;;;;;1.02;0.82;;;;;;;16.45;57.13;97088.81;4975447;28;20034;-84
2023/09/23 07:37:59;;;;;;;2.40;1.10;;;;;;;16.71;56.88;97112.09;4966274;28;20022;-84
2023/09/23 07:40:27;;;;;;;1.55;0.90;;;;;;;16.57;56.19;97096.28;4952204;28;20060;-83
2023/09/23 07:42:53;;;;;;;1.80;1.00;;;;;;;16.64;56.44;97099.34;4974283;28;20517;-84
2023/09/23 07:45:19;;;;;;;1.48;0.60;;;;;;;16.98;54.88;97112.28;4960131;28;20041;-83
2023/09/23 07:47:44;;;;;;;2.22;0.80;;;;;;;17.25;54.69;97115.25;4967691;28;20037;-84
2023/09/23 07:50:09;;;;;;;1.85;0.80;;;;;;;17.16;54.61;97109.88;4986082;28;20774;-83
2023/09/23 07:52:35;;;;;;;0.80;0.70;;;;;;;17.40;54.44;97118.41;4977102;28;20197;-84
2023/09/23 07:55:02;;;;;;;1.05;0.70;;;;;;;17.24;54.87;97151.34;4966637;28;20065;-82
2023/09/23 07:57:28;;;;;;;0.63;0.60;;;;;;;17.35;54.05;97113.25;4962403;28;20202;-84
2023/09/23 07:59:53;;;;;;;1.73;0.60;;;;;;;17.55;53.75;97121.88;4976889;28;20029;-84
2023/09/23 08:02:19;;;;;;;1.80;0.60;;;;;;;17.66;53.62;97123.22;4976854;28;20513;-83
2023/09/23 08:04:44;;;;;;;1.83;0.60;;;;;;;17.88;53.68;97142.88;4965088;28;20099;-83
2023/09/23 08:07:11;;;;;;;1.10;0.70;;;;;;;17.77;55.06;97144.91;4962054;28;20037;-83
2023/09/23 08:09:37;;;;;;;1.08;0.57;;;;;;;17.83;53.90;97133.19;4976386;28;20030;-84
2023/09/23 08:12:02;;;;;;;0.90;0.90;;;;;;;17.92;54.13;97149.13;4994562;28;20486;-84
2023/09/23 08:14:28;;;;;;;0.70;0.70;;;;;;;18.17;52.97;97139.19;4982711;28;20601;-84
2023/09/23 08:16:53;;;;;;;1.63;0.50;;;;;;;18.37;52.44;97154.59;4975853;28;20536;-84
2023/09/23 08:19:19;;;;;;;2.08;0.93;;;;;;;18.59;51.96;97164.38;4993976;28;20091;-84
2023/09/23 08:21:45;;;;;;;2.38;1.13;;;;;;;18.49;52.45;97183.84;4991191;28;20061;-83
2023/09/23 08:24:11;;;;;;;1.60;0.70;;;;;;;18.44;53.52;97175.25;4934734;28;20635;-83
2023/09/23 08:26:38;;;;;;;1.27;0.70;;;;;;;18.84;51.71;97175.50;4981348;28;20329;-84
2023/09/23 08:29:05;;;;;;;1.70;0.80;;;;;;;18.74;52.13;97163.28;4950800;28;20102;-83
2023/09/23 08:31:30;;;;;;;1.33;0.65;;;;;;;18.79;53.04;97189.56;4981076;28;20029;-82
2023/09/23 08:33:59;;;;;;;1.33;0.73;;;;;;;19.23;50.86;97180.16;4988868;28;20084;-83
2023/09/23 08:36:24;;;;;;;1.95;0.70;;;;;;;19.26;51.02;97170.84;4984272;28;20042;-83
2023/09/23 08:38:50;;;;;;;1.92;0.98;;;;;;;19.48;50.90;97177.19;5000683;28;20046;-83
2023/09/23 08:41:21;;;;;;;1.77;0.70;;;;;;;19.61;50.11;97157.84;4970256;28;20037;-83
2023/09/23 08:43:50;;;;;;;1.65;0.80;;;;;;;19.75;48.71;97160.44;4968291;28;20057;-83
2023/09/23 08:46:18;;;;;;;1.08;0.90;;;;;;;19.70;50.66;97185.09;4971663;28;20075;-83
2023/09/23 08:48:43;;;;;;;1.05;0.75;;;;;;;19.52;52.46;97163.09;4975730;28;20083;-83
2023/09/23 08:51:11;;;;;;;3.15;0.82;;;;;;;19.74;50.31;97182.59;4951548;28;20637;-83
2023/09/23 08:53:38;;;;;;;4.50;0.90;;;;;;;19.63;49.46;97171.53;4984629;28;20037;-84
2023/09/23 08:56:05;;;;;;;1.08;0.68;;;;;;;19.83;48.79;97160.47;4978478;28;20036;-84
2023/09/23 08:58:30;;;;;;;0.93;0.70;;;;;;;19.78;49.46;97180.97;4956660;28;20418;-83
2023/09/23 09:00:56;;;;;;;1.67;0.60;;;;;;;19.83;49.99;97178.97;4981696;28;20465;-83
2023/09/23 09:03:22;;;;;;;1.50;0.85;;;;;;;20.14;49.99;97209.88;4983287;28;20040;-84
2023/09/23 09:05:48;;;;;;;1.98;0.98;;;;;;;19.86;50.84;97192.66;4959282;28;20559;-83
2023/09/23 09:08:18;;;;;;;1.17;0.80;;;;;;;20.11;49.64;97193.84;4953184;28;20200;-84
2023/09/23 09:10:44;;;;;;;0.77;0.68;;;;;;;19.60;51.14;97201.97;4971645;28;20038;-83
2023/09/23 09:13:09;;;;;;;2.25;0.82;;;;;;;19.92;50.30;97188.78;4964393;28;20201;-83
2023/09/23 09:15:38;;;;;;;2.05;0.80;;;;;;;19.99;49.33;97199.69;4949565;28;20206;-83
2023/09/23 09:18:05;;;;;;;1.40;1.10;;;;;;;20.15;48.36;97203.50;4923448;28;20190;-85
2023/09/23 09:20:37;;;;;;;2.65;0.90;;;;;;;20.21;47.49;97199.63;4964111;28;20191;-83
2023/09/23 09:23:03;;;;;;;1.70;0.65;;;;;;;20.30;48.46;97215.50;4958645;28;20084;-83
2023/09/23 09:25:30;;;;;;;1.73;0.70;;;;;;;19.96;49.88;97211.69;4969016;28;20295;-83
2023/09/23 09:27:56;;;;;;;1.65;0.90;;;;;;;19.87;48.69;97202.91;4951326;28;20267;-85
2023/09/23 09:30:21;;;;;;;1.70;0.70;;;;;;;19.67;48.29;97184.91;4975192;28;20156;-84
2023/09/23 09:32:47;;;;;;;2.38;0.80;;;;;;;19.67;48.77;97212.09;4979046;28;20269;-83
2023/09/23 09:35:21;;;;;;;2.00;0.75;;;;;;;19.48;48.41;97214.94;4956553;28;20310;-83
2023/09/23 09:37:48;;;;;;;1.67;0.55;;;;;;;19.47;49.71;97197.56;4974705;28;20030;-84
2023/09/23 09:40:18;;;;;;;1.73;0.70;;;;;;;19.72;48.67;97205.91;4989709;28;20685;-83
2023/09/23 09:43:02;;;;;;;2.33;0.70;;;;;;;19.82;47.97;97209.09;4932814;28;20206;-84
2023/09/23 09:45:34;;;;;;;2.38;1.30;;;;;;;20.04;48.27;97222.59;4941089;28;20095;-83
2023/09/23 09:48:00;;;;;;;1.92;0.85;;;;;;;19.57;46.65;97199.94;4959186;28;20619;-84
2023/09/23 09:50:26;;;;;;;2.25;1.35;;;;;;;20.01;47.84;97218.69;4932074;28;20336;-84
2023/09/23 09:52:52;;;;;;;2.50;0.77;;;;;;;19.87;48.43;97215.34;4951092;28;20207;-84
2023/09/23 09:55:19;;;;;;;2.55;0.93;;;;;;;19.77;49.43;97222.44;4969304;28;20120;-84
2023/09/23 09:57:45;;;;;;;2.53;0.82;;;;;;;19.88;48.89;97238.03;4962635;28;20207;-84
2023/09/23 10:00:22;;;;;;;2.17;0.70;;;;;;;19.82;49.77;97235.53;4969772;28;20263;-83
2023/09/23 10:02:48;;;;;;;3.10;1.23;;;;;;;19.76;50.58;97233.34;4989224;28;20033;-83
2023/09/23 10:05:18;;;;;;;2.53;0.50;;;;;;;19.94;49.73;97221.75;4982808;28;20476;-84
2023/09/23 10:07:56;;;;;;;1.50;0.70;;;;;;;20.42;47.95;97243.25;4993228;28;20527;-84
2023/09/23 10:10:34;;;;;;;1.13;0.75;;;;;;;20.35;48.05;97218.03;4955741;28;20293;-83
2023/09/23 10:13:13;;;;;;;3.28;0.85;;;;;;;20.20;48.43;97223.72;4978407;28;20502;-84
2023/09/23 10:15:40;;;;;;;2.25;1.00;;;;;;;20.04;49.04;97230.53;4945778;28;20108;-84
2023/09/23 10:18:13;;;;;;;0.95;0.70;;;;;;;20.11;49.82;97233.50;4959690;28;20044;-84
2023/09/23 10:20:40;;;;;;;1.67;0.55;;;;;;;20.26;47.30;97237.59;4954231;28;20048;-84
2023/09/23 10:23:07;;;;;;;1.33;0.60;;;;;;;20.16;46.58;97225.44;4932892;28;20272;-84
2023/09/23 10:25:40;;;;;;;3.00;0.90;;;;;;;20.06;48.14;97241.56;4978502;28;20041;-83
2023/09/23 10:28:07;;;;;;;1.67;0.67;;;;;;;19.86;47.61;97246.28;4969142;28;20200;-85
2023/09/23 10:30:35;;;;;;;1.90;0.80;;;;;;;19.75;48.89;97251.03;4964674;28;20390;-84
2023/09/23 10:33:02;;;;;;;1.70;0.70;;;;;;;19.64;48.52;97250.47;4944779;28;20149;-85
2023/09/23 10:35:27;;;;;;;1.15;0.70;;;;;;;19.57;48.31;97238.75;4947262;28;20194;-83
2023/09/23 10:37:52;;;;;;;3.20;0.93;;;;;;;19.62;48.63;97247.38;4925949;28;20214;-84
2023/09/23 10:40:20;;;;;;;1.70;0.68;;;;;;;19.67;47.60;97249.06;4940404;28;20119;-83
2023/09/23 10:42:49;;;;;;;1.65;1.05;;;;;;;19.49;48.74;97250.84;4922920;28;20133;-84
2023/09/23 10:45:16;;;;;;;4.35;0.90;;;;;;;19.52;47.65;97242.31;4910438;28;20204;-85
2023/09/23 10:47:43;;;;;;;1.33;0.65;;;;;;;19.72;47.28;97246.31;4958198;28;20211;-84
2023/09/23 10:50:09;;;;;;;1.77;0.80;;;;;;;19.61;47.90;97240.50;4938103;28;20360;-84
2023/09/23 10:52:35;;;;;;;2.00;0.80;;;;;;;19.45;48.33;97249.88;4939884;28;20674;-85
2023/09/23 10:55:01;;;;;;;2.20;0.70;;;;;;;19.34;48.17;97240.63;4936359;28;20204;-85
2023/09/23 10:57:29;;;;;;;1.65;0.73;;;;;;;19.37;48.40;97245.31;4942830;28;20166;-85
2023/09/23 10:59:55;;;;;;;0.88;0.88;;;;;;;19.46;48.49;97262.00;4946863;28;20025;-85
2023/09/23 11:02:22;;;;;;;1.92;0.60;;;;;;;19.61;48.49;97252.94;4961536;28;20384;-84
2023/09/23 11:04:49;;;;;;;1.38;0.68;;;;;;;19.96;47.83;97261.88;4937933;28;20200;-84
2023/09/23 11:07:17;;;;;;;1.00;0.68;;;;;;;20.55;47.45;97263.53;5230945;23;20204;-85
2023/09/23 11:09:46;;;;;;;2.65;1.10;;;;;;;21.12;45.82;97252.91;5115782;23;20430;-84
2023/09/23 11:12:15;;;;;;;1.75;0.85;;;;;;;21.73;43.75;97248.66;5097434;23;20782;-86
2023/09/23 11:14:42;;;;;;;2.30;0.50;;;;;;;21.75;41.54;97247.28;4902179;28;20275;-85
2023/09/23 11:17:25;;;;;;;0.98;0.77;;;;;;;21.73;43.43;97262.72;4900900;28;20193;-85
2023/09/23 11:20:00;;;;;;;1.92;0.57;;;;;;;21.51;44.72;97268.97;4925631;28;20300;-87
2023/09/23 11:22:27;;;;;;;1.95;0.80;;;;;;;21.21;43.33;97268.00;4912314;28;20324;-85
2023/09/23 11:24:57;;;;;;;2.65;0.82;;;;;;;20.95;43.19;97268.75;4922170;28;20228;-85
2023/09/23 11:27:24;;;;;;;1.25;0.70;;;;;;;20.84;43.45;97272.81;4921374;28;20297;-84
2023/09/23 11:29:50;;;;;;;1.60;0.80;;;;;;;21.07;43.50;97255.69;4898421;28;20272;-87
2023/09/23 11:32:22;;;;;;;2.45;0.70;;;;;;;21.15;46.24;97267.41;4916659;28;20178;-87